Abersoch, United Kingdom
Current Conditions -  °F | °C
As of 4:50 PM on Thursday 27 Nov 2014 (Local Time) from EGOV Reporting Station
Few Clouds Few Clouds  
Wind Chill: 41°   Ceiling: Unl
Heat Index: 45°   Visibility: 6mi
Dew Point: 37°   Wind: 7mph
Humidity: 76%   Direction: 130°SE
Pressure: 29.5"   Gusts: NA
Location:  52.82°N, 4.51°W
Report Text: EGOV 271650Z 13006KT 9999 FEW008 07/03 Q0999 BLU NOSIG
Loading
Personal Weather Stations






























Interactive Weather Map New forecast layout! Learn more

10-Day Weather Forecast

Advertisements
Track Severe Weather on mobile